Terminal Aerodrome Forecast
Issued by NWS

Home | Current Version | Previous Version | Text Only | Print | Product List | Glossary On
Versions: 1 2 3 4 5 6 7 8 9 10 11 12 13 14 15 16 17 18 19 20 21
000
FTUS42 KGSP 311736
TAFHKY
TAF
KHKY 311736Z 3118/0118 23004KT P6SM SCT210
     FM010400 00000KT P6SM BKN120
     FM011600 20008G15KT P6SM SCT025 OVC080=

USA.gov is the U.S. government's official web portal to all federal, state and local government web resources and services.